createdAt,value
2022-12-29T00:01:20.073Z,99683.22
2022-12-29T00:06:21.855Z,99669.44
2022-12-29T00:11:27.810Z,99655.31
2022-12-29T00:16:30.115Z,99658.63
2022-12-29T00:21:32.178Z,99653.81
2022-12-29T00:26:33.723Z,99653.53
2022-12-29T00:31:35.254Z,99643.38
2022-12-29T00:36:40.667Z,99636.59
2022-12-29T00:41:42.115Z,99621.59
2022-12-29T00:46:44.235Z,99628.53
2022-12-29T00:51:46.085Z,99610.63
2022-12-29T00:56:51.983Z,99604.63
2022-12-29T01:01:54.847Z,99601.56
2022-12-29T01:06:56.471Z,99581.63
2022-12-29T01:11:58.834Z,99588.19
2022-12-29T01:17:00.419Z,99586.19
2022-12-29T01:22:02.009Z,99594.09
2022-12-29T01:27:03.523Z,99584.31
2022-12-29T01:32:05.356Z,99590.06
2022-12-29T01:37:06.832Z,99589.31
2022-12-29T01:42:17.249Z,99597.03
2022-12-29T01:47:31.145Z,99569.91
2022-12-29T01:52:35.607Z,99573.09
2022-12-29T01:57:40.824Z,99562.09
2022-12-29T02:02:50.172Z,99558.41
2022-12-29T02:07:53.354Z,99548.78
2022-12-29T02:12:55.141Z,99553.56
2022-12-29T02:18:26.411Z,99545.53
2022-12-29T02:23:34.971Z,99543.72
2022-12-29T02:28:39.196Z,99537.59
2022-12-29T02:33:50.490Z,99536.53
2022-12-29T02:39:21.641Z,99525.31
2022-12-29T02:44:25.736Z,99525.59
2022-12-29T02:50:01.695Z,99519.34
2022-12-29T02:55:03.555Z,99514.28
2022-12-29T03:00:08.120Z,99515.50
2022-12-29T03:05:40.254Z,99503.13
2022-12-29T03:11:00.839Z,99487.53
2022-12-29T03:16:28.290Z,99487.53
2022-12-29T03:21:35.103Z,99485.16
2022-12-29T03:26:38.138Z,99480.88
2022-12-29T03:31:40.207Z,99469.66
2022-12-29T03:36:50.163Z,99461.66
2022-12-29T03:41:58.896Z,99446.34
2022-12-29T03:47:00.426Z,99454.16
2022-12-29T03:52:02.157Z,99449.28
2022-12-29T03:57:03.671Z,99445.97
2022-12-29T04:02:05.402Z,99459.16
2022-12-29T04:07:06.895Z,99462.09
2022-12-29T04:12:09.357Z,99451.47
2022-12-29T04:17:10.814Z,99460.94
2022-12-29T04:22:12.290Z,99461.91
2022-12-29T04:27:13.823Z,99438.59
2022-12-29T04:32:16.100Z,99448.69
2022-12-29T04:37:18.157Z,99459.41
2022-12-29T04:42:19.817Z,99441.84
2022-12-29T04:47:21.301Z,99442.19
2022-12-29T04:52:22.766Z,99443.00
2022-12-29T04:57:24.398Z,99453.59
2022-12-29T05:02:26.120Z,99468.25
2022-12-29T05:07:27.654Z,99456.06
2022-12-29T05:12:32.694Z,99465.91
2022-12-29T05:17:34.326Z,99469.97
2022-12-29T05:22:35.799Z,99463.78
2022-12-29T05:27:37.738Z,99458.59
2022-12-29T05:32:39.326Z,99454.66
2022-12-29T05:37:40.872Z,99456.25
2022-12-29T05:42:42.363Z,99454.63
2022-12-29T05:47:43.792Z,99468.59
2022-12-29T05:52:45.404Z,99471.25
2022-12-29T05:57:46.906Z,99481.28
2022-12-29T06:02:48.596Z,99462.56
2022-12-29T06:07:50.248Z,99456.84
2022-12-29T06:12:51.724Z,99450.34
2022-12-29T06:17:53.138Z,99453.44
2022-12-29T06:22:54.605Z,99454.81
2022-12-29T06:27:56.107Z,99456.91
2022-12-29T06:32:58.663Z,99455.47
2022-12-29T06:38:00.144Z,99461.00
2022-12-29T06:43:01.623Z,99449.09
2022-12-29T06:48:05.916Z,99459.72
2022-12-29T06:53:07.418Z,99458.63
2022-12-29T06:58:09.074Z,99456.75
2022-12-29T07:03:10.541Z,99450.09
2022-12-29T07:08:12.049Z,99454.91
2022-12-29T07:13:13.584Z,99457.44
2022-12-29T07:18:15.123Z,99459.84
2022-12-29T07:23:16.539Z,99455.34
2022-12-29T07:28:18.038Z,99459.84
2022-12-29T07:33:19.571Z,99471.19
2022-12-29T07:38:21.052Z,99476.47
2022-12-29T07:43:22.626Z,99471.56
2022-12-29T07:48:24.253Z,99488.63
2022-12-29T07:53:25.808Z,99481.88
2022-12-29T07:58:27.915Z,99509.50
2022-12-29T08:03:29.507Z,99509.97
2022-12-29T08:08:31.121Z,99544.75
2022-12-29T08:13:32.565Z,99544.06
2022-12-29T08:18:34.041Z,99548.06
2022-12-29T08:23:35.730Z,99562.44
2022-12-29T08:28:37.184Z,99561.97
2022-12-29T08:33:38.799Z,99552.97
2022-12-29T08:38:40.364Z,99562.13
2022-12-29T08:43:41.869Z,99556.59
2022-12-29T08:48:43.392Z,99572.28
2022-12-29T08:53:44.995Z,99559.41
2022-12-29T08:58:46.462Z,99556.81
2022-12-29T09:09:10.241Z,99577.44
2022-12-29T09:14:11.949Z,99577.53
2022-12-29T09:19:14.183Z,99583.16
2022-12-29T09:24:15.697Z,99597.19
2022-12-29T09:29:17.148Z,99608.44
2022-12-29T09:34:18.571Z,99606.03
2022-12-29T09:39:19.980Z,99610.19
2022-12-29T09:44:21.486Z,99596.97
2022-12-29T09:49:38.201Z,99598.63
2022-12-29T09:54:53.713Z,99611.38
2022-12-29T10:00:13.602Z,99604.44
2022-12-29T10:05:52.955Z,99609.13
2022-12-29T10:11:07.242Z,99614.66
2022-12-29T10:16:11.494Z,99606.09
2022-12-29T10:21:32.218Z,99638.13
2022-12-29T10:26:41.705Z,99637.53
2022-12-29T10:31:51.591Z,99630.66
2022-12-29T10:37:02.666Z,99625.78
2022-12-29T10:42:28.264Z,99636.56
2022-12-29T10:47:35.995Z,99643.19
2022-12-29T10:52:40.059Z,99653.44
2022-12-29T10:57:46.294Z,99655.34
2022-12-29T11:03:09.532Z,99657.31
2022-12-29T11:08:18.953Z,99649.47
2022-12-29T11:13:27.345Z,99647.97
2022-12-29T11:18:41.038Z,99663.28
2022-12-29T11:23:42.872Z,99664.66
2022-12-29T11:29:09.324Z,99666.47
2022-12-29T11:34:20.217Z,99671.75
2022-12-29T11:39:26.638Z,99673.88
2022-12-29T11:44:28.442Z,99670.91
2022-12-29T11:49:29.963Z,99681.47
2022-12-29T11:54:37.181Z,99689.94
2022-12-29T11:59:42.850Z,99686.34
2022-12-29T12:04:44.275Z,99679.44
2022-12-29T12:10:03.170Z,99673.47
2022-12-29T12:15:17.642Z,99665.88
2022-12-29T12:20:46.921Z,99651.81
2022-12-29T12:26:00.724Z,99666.47
2022-12-29T12:31:03.597Z,99675.59
2022-12-29T12:36:38.678Z,99679.38
2022-12-29T12:41:57.519Z,99667.75
2022-12-29T12:47:10.915Z,99662.00
2022-12-29T12:52:30.840Z,99663.66
2022-12-29T12:57:41.750Z,99662.59
2022-12-29T13:03:20.885Z,99668.97
2022-12-29T13:08:25.611Z,99664.34
2022-12-29T13:14:04.174Z,99664.94
2022-12-29T13:19:11.942Z,99660.84
2022-12-29T13:24:27.100Z,99670.91
2022-12-29T13:29:37.344Z,99680.34
2022-12-29T13:34:54.743Z,99681.84
2022-12-29T13:40:04.800Z,99676.91
2022-12-29T13:45:11.347Z,99676.03
2022-12-29T13:50:19.790Z,99690.94
2022-12-29T13:55:30.610Z,99685.59
2022-12-29T14:00:48.611Z,99686.56
2022-12-29T14:06:16.031Z,99689.19
2022-12-29T14:11:20.961Z,99698.28
2022-12-29T14:16:32.972Z,99707.41
2022-12-29T14:21:34.895Z,99709.59
2022-12-29T14:26:36.706Z,99705.19
2022-12-29T14:31:38.174Z,99704.97
2022-12-29T14:36:59.055Z,99704.63
2022-12-29T14:42:21.997Z,99717.75
2022-12-29T14:47:32.217Z,99730.78
2022-12-29T14:52:43.021Z,99735.16
2022-12-29T14:58:01.373Z,99753.16
2022-12-29T15:03:20.600Z,99754.59
2022-12-29T15:08:26.246Z,99749.56
2022-12-29T15:13:38.901Z,99758.41
2022-12-29T15:18:40.350Z,99749.97
2022-12-29T15:23:44.823Z,99756.13
2022-12-29T15:28:47.389Z,99757.44
2022-12-29T15:33:52.028Z,99759.66
2022-12-29T15:38:54.439Z,99772.31
2022-12-29T15:44:18.243Z,99761.66
2022-12-29T15:49:21.432Z,99761.91
2022-12-29T15:54:24.367Z,99775.78
2022-12-29T15:59:29.495Z,99780.69
2022-12-29T16:04:43.218Z,99799.97
2022-12-29T16:09:57.295Z,99809.94
2022-12-29T16:15:02.599Z,99809.09
2022-12-29T16:20:16.652Z,99818.63
2022-12-29T16:25:18.070Z,99834.28
2022-12-29T16:30:33.418Z,99832.03
2022-12-29T16:35:44.981Z,99833.72
2022-12-29T16:41:03.708Z,99845.50
2022-12-29T16:46:26.304Z,99840.94
2022-12-29T16:51:37.483Z,99849.63
2022-12-29T16:56:45.645Z,99850.31
2022-12-29T17:01:47.602Z,99837.34
2022-12-29T17:06:49.231Z,99847.13
2022-12-29T17:11:59.237Z,99852.13
2022-12-29T17:17:06.305Z,99842.66
2022-12-29T17:22:16.156Z,99851.19
2022-12-29T17:27:35.685Z,99849.19
2022-12-29T17:32:37.298Z,99845.59
2022-12-29T17:37:38.772Z,99851.81
2022-12-29T17:42:47.163Z,99846.53
2022-12-29T17:47:48.802Z,99845.84
2022-12-29T17:52:55.327Z,99852.31
2022-12-29T17:58:01.983Z,99859.91
2022-12-29T18:03:03.828Z,99857.34
2022-12-29T18:08:05.409Z,99867.53
2022-12-29T18:13:07.299Z,99874.69
2022-12-29T18:18:13.947Z,99872.97
2022-12-29T18:23:20.727Z,99897.00
2022-12-29T18:28:22.733Z,99900.13
2022-12-29T18:33:26.653Z,99899.06
2022-12-29T18:38:29.303Z,99908.69
2022-12-29T18:43:30.783Z,99914.75
2022-12-29T18:48:32.431Z,99916.28
2022-12-29T18:53:34.057Z,99916.50
2022-12-29T18:58:36.231Z,99926.13
2022-12-29T19:03:37.793Z,99927.75
2022-12-29T19:08:39.475Z,99922.88
2022-12-29T19:13:41.110Z,99927.75
2022-12-29T19:18:44.498Z,99940.44
2022-12-29T19:23:47.632Z,99945.09
2022-12-29T19:28:49.054Z,99928.84
2022-12-29T19:33:50.723Z,99939.25
2022-12-29T19:38:52.316Z,99933.38
2022-12-29T19:43:53.766Z,99937.44
2022-12-29T19:48:55.408Z,99937.94
2022-12-29T19:53:57.247Z,99938.16
2022-12-29T19:58:59.083Z,99946.03
2022-12-29T20:04:00.586Z,99947.16
2022-12-29T20:09:02.739Z,99967.31
2022-12-29T20:14:04.533Z,99957.16
2022-12-29T20:19:06.089Z,99957.75
2022-12-29T20:24:07.746Z,99963.84
2022-12-29T20:29:09.179Z,99964.34
2022-12-29T20:34:11.226Z,99962.28
2022-12-29T20:39:18.847Z,99974.75
2022-12-29T20:44:20.297Z,99979.03
2022-12-29T20:49:21.938Z,99996.16
2022-12-29T20:54:30.763Z,99995.31
2022-12-29T20:59:35.714Z,100010.56
2022-12-29T21:05:05.612Z,100014.75
2022-12-29T21:09:58.736Z,100021.59
2022-12-29T21:15:00.300Z,100025.88
2022-12-29T21:20:02.444Z,100036.00
2022-12-29T21:25:04.240Z,100038.63
2022-12-29T21:30:06.366Z,100042.66
2022-12-29T21:35:09.725Z,100037.78
2022-12-29T21:40:11.699Z,100049.53
2022-12-29T21:45:19.832Z,100052.56
2022-12-29T21:50:21.908Z,100051.59
2022-12-29T21:55:23.320Z,100064.91
2022-12-29T22:00:24.985Z,100067.53
2022-12-29T22:05:26.629Z,100079.25
2022-12-29T22:10:28.182Z,100082.94
2022-12-29T22:15:32.808Z,100089.28
2022-12-29T22:20:36.328Z,100090.72
2022-12-29T22:25:39.411Z,100091.31
2022-12-29T22:30:41.039Z,100111.03
2022-12-29T22:35:42.453Z,100102.66
2022-12-29T22:40:44.003Z,100103.16
2022-12-29T22:45:45.459Z,100107.31
2022-12-29T22:50:47.011Z,100124.31
2022-12-29T22:55:48.553Z,100125.13
2022-12-29T23:00:50.019Z,100117.00
2022-12-29T23:05:59.174Z,100107.94
2022-12-29T23:11:01.586Z,100128.84
2022-12-29T23:16:03.220Z,100127.88
2022-12-29T23:21:05.286Z,100113.31
2022-12-29T23:26:07.737Z,100120.22
2022-12-29T23:31:09.359Z,100136.56
2022-12-29T23:36:10.961Z,100146.28
2022-12-29T23:41:12.689Z,100148.88
2022-12-29T23:46:21.172Z,100147.44
2022-12-29T23:51:22.768Z,100158.56
2022-12-29T23:56:24.473Z,100158.78
